Time;durP1;ratioP1;P1;durP2;ratioP2;P2;SDS_P1;SDS_P2;PMS_P1;PMS_P2;Temp;Humidity;BMP_temperature;BMP_pressure;BME280_temperature;BME280_humidity;BME280_pressure;Samples;Min_cycle;Max_cycle;Signal;HPM_P1;HPM_P2
2023/12/31 00:00:14;;;;;;;0.70;0.40;;;;;;;12.80;100.00;101021.72;4989816;28;20047;-84
2023/12/31 00:02:43;;;;;;;1.92;0.50;;;;;;;12.76;100.00;101025.09;4986729;28;20078;-85
2023/12/31 00:05:16;;;;;;;6.00;0.88;;;;;;;12.77;100.00;101019.91;4988120;28;20070;-84
2023/12/31 00:07:45;;;;;;;3.42;0.80;;;;;;;12.78;100.00;101023.38;4988345;28;20062;-86
2023/12/31 00:15:27;;;;;;;4.28;1.40;;;;;;;12.73;100.00;101025.88;5617218;23;20448;-88
2023/12/31 00:17:56;;;;;;;3.15;1.15;;;;;;;12.67;100.00;101041.31;4991553;28;20058;-91
2023/12/31 00:20:26;;;;;;;1.90;0.55;;;;;;;12.58;100.00;101041.06;5617922;23;20017;-87
2023/12/31 00:22:56;;;;;;;1.95;0.90;;;;;;;12.51;100.00;101037.44;4985146;28;20136;-86
2023/12/31 00:25:31;;;;;;;3.78;1.45;;;;;;;12.43;100.00;101040.66;4990986;28;20081;-91
2023/12/31 00:28:01;;;;;;;2.67;1.25;;;;;;;12.42;100.00;101046.72;4989953;28;20042;-93
2023/12/31 00:43:27;;;;;;;2.85;1.23;;;;;;;12.43;100.00;101062.31;6120335;22;20004;-92
2023/12/31 00:46:13;;;;;;;4.38;0.85;;;;;;;12.45;100.00;101054.56;4995548;28;20057;-93
2023/12/31 00:48:42;;;;;;;3.13;0.60;;;;;;;12.42;100.00;101059.69;4994086;28;20050;-91
2023/12/31 00:51:11;;;;;;;2.45;1.20;;;;;;;12.40;100.00;101067.41;4996442;28;20054;-90
2023/12/31 00:53:46;;;;;;;2.45;0.60;;;;;;;12.39;100.00;101069.97;4997226;28;20098;-91
2023/12/31 00:56:24;;;;;;;4.45;0.60;;;;;;;12.35;100.00;101071.63;4991577;28;20062;-92
2023/12/31 00:59:03;;;;;;;;;;;;;;;;;;;;;
2023/12/31 01:01:35;;;;;;;3.88;0.70;;;;;;;12.31;100.00;101075.81;4986471;28;20042;-88
2023/12/31 01:04:07;;;;;;;1.80;0.65;;;;;;;12.31;100.00;101088.81;4989474;28;20046;-88
2023/12/31 01:06:44;;;;;;;;;;;;;;;12.30;100.00;101092.25;4983522;28;20055;-88
2023/12/31 01:09:15;;;;;;;2.00;0.65;;;;;;;12.27;100.00;101094.72;4989028;28;20016;-87
2023/12/31 01:11:47;;;;;;;2.13;0.50;;;;;;;12.20;100.00;101102.31;4996676;28;20046;-87
2023/12/31 01:14:22;;;;;;;1.20;0.90;;;;;;;12.11;100.00;101097.72;4984074;28;20058;-86
2023/12/31 01:16:54;;;;;;;0.85;0.60;;;;;;;12.01;100.00;101094.00;4978638;28;20052;-86
2023/12/31 01:19:23;;;;;;;2.08;0.70;;;;;;;11.89;100.00;101104.91;4991794;28;20046;-91
2023/12/31 01:21:52;;;;;;;3.45;0.70;;;;;;;11.81;100.00;101101.16;4994884;28;20074;-89
2023/12/31 01:24:21;;;;;;;1.55;0.63;;;;;;;11.76;100.00;101110.50;4984340;28;20222;-88
2023/12/31 01:26:50;;;;;;;2.08;0.52;;;;;;;11.69;100.00;101118.94;4985682;28;20114;-90
2023/12/31 01:29:19;;;;;;;1.42;0.77;;;;;;;11.61;100.00;101123.00;4988409;28;20109;-91
2023/12/31 01:31:48;;;;;;;2.47;0.80;;;;;;;11.50;100.00;101118.38;4991962;28;20047;-89
2023/12/31 01:34:24;;;;;;;2.45;0.70;;;;;;;11.44;100.00;101120.75;4992317;28;20066;-90
2023/12/31 01:36:53;;;;;;;3.38;0.88;;;;;;;11.41;100.00;101115.50;4991972;28;20187;-93
2023/12/31 01:42:03;;;;;;;2.97;0.68;;;;;;;11.35;100.00;101127.38;5962559;23;20042;-89
2023/12/31 02:00:17;;;;;;;4.70;1.55;;;;;;;11.55;100.00;101140.97;5004766;23;20428;-87
2023/12/31 02:02:51;;;;;;;1.83;0.90;;;;;;;11.57;100.00;101155.72;4986549;28;20038;-87
2023/12/31 02:05:20;;;;;;;1.05;0.70;;;;;;;11.53;100.00;101146.97;4982616;28;20058;-86
2023/12/31 02:07:51;;;;;;;0.88;0.50;;;;;;;11.42;100.00;101156.09;4987346;28;20057;-87
2023/12/31 02:10:28;;;;;;;3.67;0.90;;;;;;;11.33;100.00;101148.91;4987762;28;20065;-87
2023/12/31 02:12:58;;;;;;;2.50;0.50;;;;;;;11.33;100.00;101161.84;4985168;28;20059;-85
2023/12/31 02:15:36;;;;;;;2.13;0.68;;;;;;;11.33;100.00;101163.56;4986467;28;20053;-85
2023/12/31 02:18:11;;;;;;;1.02;0.63;;;;;;;11.36;100.00;101170.56;4983654;28;20054;-87
2023/12/31 02:20:44;;;;;;;0.73;0.60;;;;;;;11.28;100.00;101172.91;4990726;28;20058;-87
2023/12/31 02:23:12;;;;;;;;;;;;;;;11.28;100.00;101168.59;4983422;28;20518;-87
2023/12/31 02:25:46;;;;;;;1.17;0.70;;;;;;;11.27;100.00;101176.31;4990090;28;20352;-86
2023/12/31 02:28:18;;;;;;;1.15;0.63;;;;;;;11.15;100.00;101171.59;4979372;28;20065;-86
2023/12/31 02:30:46;;;;;;;;;;;;;;;10.97;100.00;101174.47;4982185;28;20070;-86
2023/12/31 02:33:16;;;;;;;2.50;0.70;;;;;;;10.80;100.00;101173.00;4988117;28;19922;-88
2023/12/31 02:35:47;;;;;;;3.05;0.68;;;;;;;10.63;100.00;101175.88;4983785;28;20047;-85
2023/12/31 02:38:17;;;;;;;0.50;0.40;;;;;;;10.55;100.00;101172.13;4982052;28;20058;-86
2023/12/31 02:40:46;;;;;;;0.55;0.50;;;;;;;10.52;100.00;101178.91;4978896;28;20054;-86
2023/12/31 02:43:18;;;;;;;2.45;0.70;;;;;;;10.39;100.00;101177.56;4984822;28;20050;-86
2023/12/31 02:45:54;;;;;;;1.20;0.70;;;;;;;10.26;100.00;101184.84;4975977;28;20416;-85
2023/12/31 02:48:24;;;;;;;1.10;0.63;;;;;;;10.18;100.00;101185.38;4983799;28;20089;-87
2023/12/31 02:50:55;;;;;;;0.88;0.40;;;;;;;10.14;100.00;101186.94;4980620;28;20046;-87
2023/12/31 02:53:24;;;;;;;1.02;0.65;;;;;;;10.07;100.00;101190.13;4984682;28;20066;-87
2023/12/31 02:55:57;;;;;;;1.92;0.60;;;;;;;9.98;100.00;101200.09;4981261;28;20070;-86
2023/12/31 02:58:28;;;;;;;0.82;0.57;;;;;;;9.83;100.00;101201.28;4976310;28;20117;-87
2023/12/31 03:00:57;;;;;;;1.27;0.60;;;;;;;9.72;100.00;101204.25;4985330;28;20495;-88
2023/12/31 03:03:29;;;;;;;1.25;0.70;;;;;;;9.65;100.00;101200.53;4986323;28;20069;-85
2023/12/31 03:06:02;;;;;;;1.17;0.50;;;;;;;9.56;100.00;101207.91;4982361;28;20082;-86
2023/12/31 03:08:31;;;;;;;1.88;0.93;;;;;;;9.45;100.00;101215.22;4984789;28;20135;-86
2023/12/31 03:11:00;;;;;;;0.65;0.40;;;;;;;9.35;100.00;101208.81;4987327;28;20062;-87
2023/12/31 03:13:40;;;;;;;0.85;0.35;;;;;;;9.31;100.00;101226.69;4979084;28;20046;-86
2023/12/31 03:16:09;;;;;;;0.30;0.30;;;;;;;9.25;100.00;101227.28;4985584;28;20138;-84
2023/12/31 03:18:38;;;;;;;1.45;0.60;;;;;;;9.22;100.00;101228.06;4981266;28;20063;-87
2023/12/31 03:21:07;;;;;;;1.33;0.50;;;;;;;9.23;100.00;101221.19;4983906;28;20054;-85
2023/12/31 03:23:46;;;;;;;0.77;0.50;;;;;;;9.27;100.00;101228.25;4984271;28;20077;-87
2023/12/31 03:26:15;;;;;;;0.68;0.30;;;;;;;9.22;100.00;101230.63;4989780;28;20082;-85
2023/12/31 03:28:47;;;;;;;0.63;0.20;;;;;;;9.14;100.00;101223.38;4987205;28;20062;-85
2023/12/31 03:31:16;;;;;;;0.43;0.40;;;;;;;9.01;100.00;101230.59;4983942;28;20069;-84
2023/12/31 03:33:46;;;;;;;1.85;0.45;;;;;;;8.96;100.00;101239.84;4989847;28;20554;-86
2023/12/31 03:36:15;;;;;;;0.40;0.20;;;;;;;8.98;100.00;101245.09;4978405;28;20532;-86
2023/12/31 03:38:44;;;;;;;1.65;0.50;;;;;;;8.96;100.00;101245.00;4983599;28;20065;-85
2023/12/31 03:41:14;;;;;;;0.85;0.30;;;;;;;8.94;100.00;101248.34;4988652;28;20104;-84
2023/12/31 03:43:45;;;;;;;0.20;0.20;;;;;;;8.93;100.00;101250.06;4982686;28;20054;-82
2023/12/31 03:46:16;;;;;;;2.05;0.40;;;;;;;8.96;100.00;101247.59;4981326;28;20062;-87
2023/12/31 03:48:46;;;;;;;0.28;0.28;;;;;;;8.98;100.00;101256.28;4987033;28;20138;-83
2023/12/31 03:51:14;;;;;;;0.50;0.25;;;;;;;8.99;100.00;101263.19;4993275;28;20058;-83
2023/12/31 03:53:50;;;;;;;2.83;0.40;;;;;;;8.98;100.00;101258.00;4992797;28;20100;-84
2023/12/31 03:56:21;;;;;;;0.75;0.50;;;;;;;8.97;100.00;101257.09;4981714;28;20568;-87
2023/12/31 03:58:51;;;;;;;2.10;0.40;;;;;;;8.89;100.00;101252.44;4984918;28;20059;-84
2023/12/31 04:01:30;;;;;;;0.88;0.40;;;;;;;8.88;100.00;101264.41;4990626;28;20111;-85
2023/12/31 04:04:00;;;;;;;0.85;0.57;;;;;;;8.88;100.00;101267.00;4987938;28;20050;-84
2023/12/31 04:06:29;;;;;;;4.13;0.70;;;;;;;8.83;100.00;101265.91;4990160;28;20065;-87
2023/12/31 04:09:01;;;;;;;0.65;0.35;;;;;;;8.78;100.00;101270.00;4989805;28;20104;-86
2023/12/31 04:11:37;;;;;;;2.33;0.70;;;;;;;8.76;100.00;101279.38;4991002;28;20062;-86
2023/12/31 04:14:06;;;;;;;0.22;0.20;;;;;;;8.73;100.00;101276.66;4989198;28;20066;-84
2023/12/31 04:16:37;;;;;;;1.67;0.40;;;;;;;8.71;100.00;101276.59;4987666;28;20057;-83
2023/12/31 04:19:14;;;;;;;1.08;0.70;;;;;;;8.67;100.00;101284.09;4992197;28;20104;-83
2023/12/31 04:21:43;;;;;;;0.90;0.63;;;;;;;8.64;100.00;101289.13;4993508;28;20141;-87
2023/12/31 04:24:15;;;;;;;0.60;0.45;;;;;;;8.53;100.00;101288.63;4988172;28;20137;-86
2023/12/31 04:26:51;;;;;;;1.02;0.80;;;;;;;8.51;100.00;101304.03;4987789;28;20058;-84
2023/12/31 04:29:20;;;;;;;2.15;0.80;;;;;;;8.50;100.00;101302.28;4983770;28;20137;-86
2023/12/31 04:31:51;;;;;;;1.75;0.98;;;;;;;8.52;100.00;101304.91;4987531;28;20104;-85
2023/12/31 04:34:21;;;;;;;4.28;2.17;;;;;;;8.51;100.00;101308.31;4986876;28;20065;-85
2023/12/31 04:36:50;;;;;;;2.35;1.30;;;;;;;8.47;100.00;101306.41;4988168;28;20080;-85
2023/12/31 04:39:19;;;;;;;5.25;2.03;;;;;;;8.46;100.00;101318.41;4988845;28;20130;-85
2023/12/31 04:41:48;;;;;;;4.60;1.70;;;;;;;8.42;100.00;101324.22;4987979;28;20080;-84
2023/12/31 04:44:17;;;;;;;2.58;1.75;;;;;;;8.33;100.00;101323.75;4989126;28;20046;-86
2023/12/31 04:46:46;;;;;;;4.63;1.77;;;;;;;8.19;100.00;101323.97;4985995;28;20082;-87
2023/12/31 04:49:20;;;;;;;2.75;1.48;;;;;;;8.10;100.00;101331.28;4990726;28;20508;-86
2023/12/31 04:51:52;;;;;;;2.03;1.30;;;;;;;8.03;100.00;101328.31;4989525;28;20509;-86
2023/12/31 04:54:21;;;;;;;5.38;1.33;;;;;;;7.96;100.00;101328.03;4989941;28;20074;-86
2023/12/31 04:56:51;;;;;;;2.28;1.60;;;;;;;7.92;100.00;101327.78;4991479;28;20159;-84
2023/12/31 04:59:23;;;;;;;5.57;1.33;;;;;;;7.95;100.00;101334.00;4990846;28;20076;-87
2023/12/31 05:01:52;;;;;;;2.83;1.10;;;;;;;7.94;100.00;101339.06;4990179;28;20058;-86
2023/12/31 05:04:25;;;;;;;2.65;1.38;;;;;;;7.91;100.00;101333.78;4989890;28;20496;-87
2023/12/31 05:07:03;;;;;;;4.88;2.08;;;;;;;7.83;100.00;101329.91;4985055;28;20185;-84
2023/12/31 05:09:32;;;;;;;12.95;3.05;;;;;;;7.87;100.00;101334.41;4991363;28;20054;-85
2023/12/31 05:12:01;;;;;;;6.38;3.40;;;;;;;7.88;100.00;101344.81;4988832;28;20097;-86
2023/12/31 05:14:30;;;;;;;5.60;2.75;;;;;;;7.84;100.00;101352.31;4982595;28;20586;-86
2023/12/31 05:17:04;;;;;;;8.50;3.75;;;;;;;7.87;100.00;101349.88;4983170;28;20141;-85
2023/12/31 05:19:36;;;;;;;7.88;3.53;;;;;;;7.93;100.00;101347.63;4989168;28;20046;-84
2023/12/31 05:22:06;;;;;;;6.22;2.90;;;;;;;7.97;100.00;101346.94;4980334;28;20058;-86
2023/12/31 05:24:37;;;;;;;9.20;3.35;;;;;;;7.95;100.00;101335.69;4985137;28;20056;-86
2023/12/31 05:27:07;;;;;;;7.57;2.88;;;;;;;7.96;100.00;101334.88;4990895;28;20070;-86
2023/12/31 05:29:36;;;;;;;5.88;2.95;;;;;;;7.92;100.00;101343.25;4985657;28;20078;-86
2023/12/31 05:32:06;;;;;;;6.65;2.70;;;;;;;7.87;100.00;101343.03;4990655;28;20054;-87
2023/12/31 05:34:49;;;;;;;7.78;3.15;;;;;;;7.87;100.00;101337.00;4987388;28;20479;-87
2023/12/31 05:37:18;;;;;;;6.88;2.85;;;;;;;7.88;100.00;101334.50;4985969;28;20058;-86
2023/12/31 05:39:47;;;;;;;6.50;2.72;;;;;;;7.89;100.00;101331.09;4988499;28;20058;-88
2023/12/31 05:42:20;;;;;;;5.95;2.28;;;;;;;7.93;100.00;101339.88;4987982;28;20050;-87
2023/12/31 05:44:48;;;;;;;5.97;2.90;;;;;;;7.88;100.00;101336.19;4989800;28;20574;-86
2023/12/31 05:47:18;;;;;;;7.00;2.78;;;;;;;7.91;100.00;101338.91;4984140;28;20054;-85
2023/12/31 05:49:49;;;;;;;4.22;3.20;;;;;;;7.93;100.00;101345.03;4990052;28;20613;-87
2023/12/31 05:52:18;;;;;;;8.57;3.40;;;;;;;7.89;100.00;101345.69;4986463;28;20125;-86
2023/12/31 05:54:51;;;;;;;7.30;3.55;;;;;;;7.86;100.00;101345.53;4986487;28;20065;-87
2023/12/31 05:57:20;;;;;;;7.35;2.55;;;;;;;7.85;100.00;101346.34;4991814;28;20046;-86
2023/12/31 05:59:49;;;;;;;6.85;2.42;;;;;;;7.84;100.00;101357.47;4984921;28;20112;-86
2023/12/31 06:02:18;;;;;;;5.07;2.00;;;;;;;7.87;100.00;101362.75;4984743;28;20125;-87
2023/12/31 06:04:58;;;;;;;3.75;1.85;;;;;;;7.84;100.00;101354.88;4986895;28;20054;-86
2023/12/31 06:07:27;;;;;;;3.67;2.00;;;;;;;7.78;100.00;101362.31;4989994;28;20073;-88
2023/12/31 06:09:57;;;;;;;3.85;1.80;;;;;;;7.80;100.00;101368.41;4991398;28;20582;-86
2023/12/31 06:12:34;;;;;;;2.60;1.55;;;;;;;7.80;100.00;101361.56;4987972;28;20050;-88
2023/12/31 06:15:06;;;;;;;10.65;3.15;;;;;;;7.75;100.00;101371.63;4983497;28;20085;-88
2023/12/31 06:17:35;;;;;;;5.35;2.70;;;;;;;7.62;100.00;101374.38;4986722;28;20082;-86
2023/12/31 06:20:14;;;;;;;7.45;2.72;;;;;;;7.50;100.00;101376.34;4993823;28;20527;-87
2023/12/31 06:22:43;;;;;;;6.07;3.17;;;;;;;7.37;100.00;101379.09;4992180;28;20054;-87
2023/12/31 06:25:12;;;;;;;7.03;2.45;;;;;;;7.32;100.00;101377.16;4986170;28;20047;-86
2023/12/31 06:27:42;;;;;;;7.57;2.60;;;;;;;7.39;100.00;101377.47;4978549;28;20233;-87
2023/12/31 06:30:18;;;;;;;8.88;3.17;;;;;;;7.40;100.00;101381.81;4990160;28;20057;-87
2023/12/31 06:32:50;;;;;;;8.45;3.33;;;;;;;7.34;100.00;101372.09;4988289;28;20078;-87
2023/12/31 06:35:21;;;;;;;6.75;3.90;;;;;;;7.30;100.00;101367.56;4985653;28;20066;-88
2023/12/31 06:38:00;;;;;;;13.13;5.07;;;;;;;7.37;100.00;101371.34;4982516;28;20058;-87
2023/12/31 06:40:29;;;;;;;13.07;5.00;;;;;;;7.40;100.00;101381.81;4986819;28;20054;-86
2023/12/31 06:42:57;;;;;;;11.27;4.10;;;;;;;7.39;100.00;101382.63;4989304;28;20141;-87
2023/12/31 06:45:26;;;;;;;10.15;3.80;;;;;;;7.39;100.00;101380.06;4985757;28;20082;-86
2023/12/31 06:47:58;;;;;;;7.53;3.00;;;;;;;7.41;100.00;101381.03;4984246;28;20046;-88
2023/12/31 06:50:33;;;;;;;5.53;2.80;;;;;;;7.35;100.00;101376.41;4983978;28;20043;-87
2023/12/31 06:53:02;;;;;;;6.63;3.10;;;;;;;7.40;100.00;101384.38;4986508;28;20460;-87
2023/12/31 06:55:36;;;;;;;6.22;2.90;;;;;;;7.38;100.00;101383.44;4986303;28;20058;-86
2023/12/31 06:58:06;;;;;;;6.35;3.00;;;;;;;7.38;100.00;101381.75;4991390;28;20054;-86
2023/12/31 07:00:35;;;;;;;8.02;3.63;;;;;;;7.32;100.00;101382.28;4983845;28;20074;-87
2023/12/31 07:03:04;;;;;;;7.60;3.83;;;;;;;7.30;100.00;101380.44;4988505;28;20050;-88
2023/12/31 07:05:36;;;;;;;7.32;3.33;;;;;;;7.31;100.00;101390.84;4981842;28;20145;-86
2023/12/31 07:08:06;;;;;;;10.07;4.15;;;;;;;7.25;100.00;101395.66;4985192;28;20073;-87
2023/12/31 07:10:35;;;;;;;8.98;4.55;;;;;;;7.20;100.00;101391.94;4978119;28;20105;-87
2023/12/31 07:13:04;;;;;;;12.10;4.93;;;;;;;7.16;100.00;101390.00;4977957;28;20046;-86
2023/12/31 07:15:33;;;;;;;9.63;4.97;;;;;;;7.12;100.00;101393.22;4979822;28;20054;-86
2023/12/31 07:18:09;;;;;;;9.63;4.45;;;;;;;7.04;100.00;101387.66;4985563;28;20053;-86
2023/12/31 07:20:41;;;;;;;8.35;4.00;;;;;;;7.00;100.00;101393.44;4988872;28;20070;-86
2023/12/31 07:23:10;;;;;;;9.50;3.90;;;;;;;6.93;100.00;101391.34;4993204;28;20571;-87
2023/12/31 07:25:45;;;;;;;8.75;3.88;;;;;;;6.92;100.00;101384.44;4990263;28;20054;-87
2023/12/31 07:28:14;;;;;;;7.28;2.92;;;;;;;6.93;100.00;101381.94;4987872;28;20047;-87
2023/12/31 07:30:44;;;;;;;7.43;3.47;;;;;;;6.93;100.00;101389.66;4990025;28;20150;-87
2023/12/31 07:33:13;;;;;;;9.70;3.80;;;;;;;6.91;100.00;101396.41;4991280;28;20137;-87
2023/12/31 07:35:47;;;;;;;8.52;3.95;;;;;;;6.93;100.00;101392.22;4987068;28;20047;-85
2023/12/31 07:38:16;;;;;;;9.35;4.28;;;;;;;6.92;100.00;101393.03;4987283;28;20062;-86
2023/12/31 07:40:45;;;;;;;9.25;4.22;;;;;;;6.85;100.00;101390.03;4991636;28;20134;-86
2023/12/31 07:43:14;;;;;;;9.23;4.05;;;;;;;6.73;100.00;101392.81;4991876;28;20057;-86
2023/12/31 07:45:46;;;;;;;10.38;4.47;;;;;;;6.61;100.00;101381.88;4991319;28;20182;-87
2023/12/31 07:48:15;;;;;;;9.57;4.07;;;;;;;6.53;100.00;101373.75;4987348;28;20137;-87
2023/12/31 07:50:46;;;;;;;10.38;3.92;;;;;;;6.59;100.00;101376.63;4992978;28;20110;-86
2023/12/31 07:53:15;;;;;;;8.57;3.92;;;;;;;6.56;100.00;101383.31;4992678;28;20057;-87
2023/12/31 07:55:52;;;;;;;10.00;3.08;;;;;;;6.47;100.00;101376.84;4991909;28;20135;-87
2023/12/31 07:58:24;;;;;;;8.65;3.80;;;;;;;6.42;100.00;101375.69;4993065;28;20140;-86
2023/12/31 08:00:53;;;;;;;10.52;3.50;;;;;;;6.43;100.00;101380.03;4986800;28;20050;-85
2023/12/31 08:03:23;;;;;;;6.28;2.58;;;;;;;6.45;100.00;101381.00;4992916;28;20073;-85
2023/12/31 08:05:55;;;;;;;4.18;2.00;;;;;;;6.46;100.00;101385.38;4991361;28;20050;-86
2023/12/31 08:08:25;;;;;;;6.25;1.73;;;;;;;6.43;100.00;101377.47;4983909;28;20145;-85
2023/12/31 08:10:54;;;;;;;4.40;1.88;;;;;;;6.43;100.00;101382.59;4988139;28;20129;-85
2023/12/31 08:13:23;;;;;;;5.18;1.90;;;;;;;6.44;100.00;101389.53;4979847;28;20055;-86
2023/12/31 08:15:57;;;;;;;6.13;1.98;;;;;;;6.44;100.00;101388.66;4979291;28;20113;-86
2023/12/31 08:18:27;;;;;;;3.33;1.58;;;;;;;6.38;100.00;101385.72;4986038;28;20142;-87
2023/12/31 08:20:58;;;;;;;6.07;1.60;;;;;;;6.37;100.00;101386.50;4988481;28;20050;-86
2023/12/31 08:23:31;;;;;;;3.22;1.20;;;;;;;6.36;100.00;101382.19;4983200;28;20205;-87
2023/12/31 08:26:03;;;;;;;3.80;2.03;;;;;;;6.35;100.00;101388.13;4990512;28;20109;-86
2023/12/31 08:28:32;;;;;;;5.22;1.58;;;;;;;6.33;100.00;101385.47;4990437;28;20050;-87
2023/12/31 08:31:01;;;;;;;4.82;2.00;;;;;;;6.34;100.00;101382.09;4979583;28;20062;-87
2023/12/31 08:33:30;;;;;;;3.00;1.67;;;;;;;6.33;100.00;101385.47;4993732;28;20138;-87
2023/12/31 08:36:08;;;;;;;4.72;2.25;;;;;;;6.29;100.00;101398.94;4989081;28;20508;-87
2023/12/31 08:38:37;;;;;;;5.00;2.25;;;;;;;6.28;100.00;101392.03;4990752;28;20058;-86
2023/12/31 08:41:06;;;;;;;5.97;2.72;;;;;;;6.22;100.00;101389.13;4991089;28;20133;-86
2023/12/31 08:43:41;;;;;;;4.07;2.25;;;;;;;6.13;100.00;101391.16;4993015;28;20061;-86
2023/12/31 08:46:10;;;;;;;4.13;2.65;;;;;;;6.03;100.00;101398.34;4987022;28;20062;-86
2023/12/31 08:48:40;;;;;;;5.53;2.33;;;;;;;6.01;100.00;101397.34;4986314;28;20550;-85
2023/12/31 08:51:10;;;;;;;4.43;2.15;;;;;;;6.04;100.00;101396.63;4993315;28;20062;-86
2023/12/31 08:53:42;;;;;;;6.25;3.10;;;;;;;6.05;100.00;101394.16;4991854;28;20086;-87
2023/12/31 08:56:12;;;;;;;3.53;1.95;;;;;;;6.04;100.00;101389.81;4991115;28;20057;-87
2023/12/31 08:58:41;;;;;;;2.78;1.55;;;;;;;6.04;100.00;101394.94;4988515;28;20081;-87
2023/12/31 09:01:12;;;;;;;3.47;1.73;;;;;;;6.10;100.00;101396.13;4993220;28;20133;-86
2023/12/31 09:03:49;;;;;;;3.63;1.77;;;;;;;6.13;100.00;101394.59;4983365;28;20058;-87
2023/12/31 09:06:23;;;;;;;1.15;0.73;;;;;;;6.12;100.00;101403.13;4987217;28;20456;-87
2023/12/31 09:08:51;;;;;;;2.67;1.60;;;;;;;6.12;100.00;101392.84;4991683;28;20046;-86
2023/12/31 09:11:24;;;;;;;3.70;2.13;;;;;;;6.13;100.00;101391.16;4992146;28;20181;-86
2023/12/31 09:13:54;;;;;;;3.33;1.77;;;;;;;6.11;100.00;101405.59;4992578;28;20174;-86
2023/12/31 09:16:23;;;;;;;5.40;1.42;;;;;;;6.09;100.00;101413.19;4986773;28;20050;-86
2023/12/31 09:18:52;;;;;;;4.43;1.73;;;;;;;6.07;100.00;101414.81;4992375;28;20054;-86
2023/12/31 09:21:26;;;;;;;2.28;1.58;;;;;;;6.02;100.00;101404.25;4991702;28;20054;-85
2023/12/31 09:23:55;;;;;;;1.08;0.52;;;;;;;6.02;100.00;101406.81;4981698;28;20445;-85
2023/12/31 09:26:24;;;;;;;3.80;1.67;;;;;;;5.98;100.00;101401.41;4993088;28;20061;-86
2023/12/31 09:28:53;;;;;;;2.63;1.77;;;;;;;6.02;100.00;101399.09;4990069;28;20137;-86
2023/12/31 09:31:25;;;;;;;2.90;1.63;;;;;;;6.06;100.00;101406.22;4987983;28;20050;-86
2023/12/31 09:33:55;;;;;;;3.70;1.30;;;;;;;6.10;100.00;101401.25;4992143;28;20050;-87
2023/12/31 09:36:26;;;;;;;4.57;2.28;;;;;;;6.08;100.00;101407.19;4987412;28;20109;-86
2023/12/31 09:38:55;;;;;;;3.88;1.73;;;;;;;6.03;100.00;101406.03;4990112;28;20050;-87
2023/12/31 09:41:32;;;;;;;2.60;1.30;;;;;;;5.97;100.00;101405.66;4989831;28;20058;-87
2023/12/31 09:44:03;;;;;;;3.13;1.30;;;;;;;5.94;100.00;101395.22;4979267;28;20062;-85
2023/12/31 09:46:39;;;;;;;1.90;1.05;;;;;;;5.96;100.00;101403.03;4983203;28;20437;-86
2023/12/31 09:49:14;;;;;;;1.90;1.17;;;;;;;5.92;100.00;101407.06;4989693;28;20114;-87
2023/12/31 09:51:48;;;;;;;2.05;0.93;;;;;;;5.85;100.00;101417.78;4991617;28;20053;-87
2023/12/31 09:54:17;;;;;;;2.00;1.00;;;;;;;5.85;100.00;101420.34;4989114;28;20050;-87
2023/12/31 09:56:57;;;;;;;2.15;1.15;;;;;;;5.85;100.00;101417.78;4977532;28;20058;-87
2023/12/31 09:59:28;;;;;;;1.63;1.10;;;;;;;5.82;100.00;101421.06;4989662;28;20065;-87
2023/12/31 10:02:00;;;;;;;1.48;0.90;;;;;;;5.79;100.00;101414.81;4989385;28;20222;-87
2023/12/31 10:04:34;;;;;;;1.83;1.20;;;;;;;5.81;100.00;101415.81;4989422;28;20050;-86
2023/12/31 10:07:06;;;;;;;2.75;1.17;;;;;;;5.78;100.00;101415.63;4988546;28;20050;-86
2023/12/31 10:09:40;;;;;;;2.13;1.10;;;;;;;5.75;100.00;101418.91;4983902;28;20133;-85
2023/12/31 10:12:15;;;;;;;1.38;0.63;;;;;;;5.70;100.00;101416.84;4989938;28;20070;-86
2023/12/31 10:14:45;;;;;;;1.85;1.00;;;;;;;5.75;100.00;101433.41;4985661;28;20081;-86
2023/12/31 10:17:15;;;;;;;1.50;0.82;;;;;;;5.75;100.00;101423.13;4990283;28;20054;-85
2023/12/31 10:19:44;;;;;;;3.65;1.25;;;;;;;5.78;100.00;101425.91;4978887;28;20050;-85
2023/12/31 10:22:24;;;;;;;1.83;1.15;;;;;;;5.78;100.00;101437.06;4986191;28;20051;-86
2023/12/31 10:24:52;;;;;;;3.35;1.60;;;;;;;5.74;100.00;101426.50;4983331;28;20101;-86
2023/12/31 10:27:22;;;;;;;3.40;1.08;;;;;;;5.76;100.00;101425.81;4979592;28;20078;-86
2023/12/31 10:29:56;;;;;;;2.35;1.08;;;;;;;5.71;100.00;101421.22;4985820;28;20137;-86
2023/12/31 10:32:26;;;;;;;1.00;0.65;;;;;;;5.69;100.00;101438.19;4988556;28;20054;-86
2023/12/31 10:35:05;;;;;;;1.05;0.85;;;;;;;5.68;100.00;101437.31;4987720;28;20093;-86
2023/12/31 10:37:40;;;;;;;2.85;1.23;;;;;;;5.73;100.00;101437.59;4987570;28;20073;-87
2023/12/31 10:40:22;;;;;;;5.60;1.05;;;;;;;5.70;100.00;101434.81;4980346;28;20149;-87
2023/12/31 10:42:57;;;;;;;1.13;0.70;;;;;;;5.68;100.00;101432.19;4983174;28;20621;-87
2023/12/31 10:45:26;;;;;;;6.22;1.02;;;;;;;5.71;100.00;101440.06;4982135;28;20050;-87
2023/12/31 10:48:01;;;;;;;1.83;0.88;;;;;;;5.72;100.00;101443.50;4986895;28;20055;-87
2023/12/31 10:50:44;;;;;;;2.33;1.00;;;;;;;5.66;100.00;101436.34;4984919;28;20108;-87
2023/12/31 10:53:18;;;;;;;2.17;1.00;;;;;;;5.66;100.00;101444.94;4978316;28;20050;-87
2023/12/31 10:55:55;;;;;;;2.28;0.90;;;;;;;5.73;100.00;101437.59;4981001;28;20530;-87
2023/12/31 10:58:25;;;;;;;1.10;0.80;;;;;;;5.74;100.00;101434.22;4982602;28;20066;-88
2023/12/31 11:00:54;;;;;;;1.33;0.90;;;;;;;5.72;100.00;101422.97;4991021;28;20054;-85
2023/12/31 11:03:24;;;;;;;2.03;0.95;;;;;;;5.70;100.00;101425.44;4976976;28;20145;-87
2023/12/31 11:05:54;;;;;;;1.65;0.90;;;;;;;5.73;100.00;101435.91;4981490;28;20057;-86
2023/12/31 11:08:27;;;;;;;2.80;0.80;;;;;;;5.72;100.00;101422.97;4989788;28;20043;-86
2023/12/31 11:10:56;;;;;;;0.75;0.68;;;;;;;5.70;100.00;101424.56;4991373;28;20061;-87
2023/12/31 11:13:32;;;;;;;2.03;1.08;;;;;;;5.72;100.00;101433.25;4987522;28;20050;-86
2023/12/31 11:16:07;;;;;;;1.40;0.75;;;;;;;5.69;100.00;101430.50;4976551;28;20235;-86
2023/12/31 11:18:52;;;;;;;1.45;1.02;;;;;;;5.65;100.00;101432.88;4990166;28;20054;-86
2023/12/31 11:21:39;;;;;;;2.45;0.93;;;;;;;5.61;100.00;101423.22;4984923;28;20073;-87
2023/12/31 11:24:18;;;;;;;1.60;0.57;;;;;;;5.62;100.00;101419.84;4980303;28;20563;-87
2023/12/31 11:27:06;;;;;;;2.10;0.98;;;;;;;5.62;100.00;101422.41;4982200;28;20050;-86
2023/12/31 11:29:40;;;;;;;0.88;0.60;;;;;;;5.53;100.00;101411.59;4980432;28;20071;-86
2023/12/31 11:32:11;;;;;;;4.20;0.70;;;;;;;5.46;100.00;101415.47;4982611;28;20054;-86
2023/12/31 11:34:40;;;;;;;1.30;0.60;;;;;;;5.37;100.00;101419.16;4982837;28;20105;-86
2023/12/31 11:37:12;;;;;;;0.80;0.55;;;;;;;5.31;100.00;101424.78;4986305;28;20074;-86
2023/12/31 11:39:48;;;;;;;2.42;0.75;;;;;;;5.24;100.00;101420.09;4985207;28;20065;-86
2023/12/31 11:42:21;;;;;;;1.17;0.73;;;;;;;5.24;100.00;101410.72;4984981;28;20057;-86
2023/12/31 11:44:57;;;;;;;1.85;0.82;;;;;;;5.31;100.00;101408.53;4986305;28;20057;-86
2023/12/31 11:47:29;;;;;;;1.50;0.95;;;;;;;5.36;100.00;101417.38;4980919;28;20142;-86
2023/12/31 11:50:22;;;;;;;0.32;0.32;;;;;;;5.33;100.00;101402.69;4986776;28;20105;-87
2023/12/31 11:52:54;;;;;;;1.63;0.80;;;;;;;5.41;100.00;101416.88;4976992;28;20058;-87
2023/12/31 11:55:25;;;;;;;1.80;0.90;;;;;;;5.41;100.00;101405.75;4982066;28;20090;-86
2023/12/31 11:57:58;;;;;;;1.95;0.77;;;;;;;5.39;100.00;101407.31;4985547;28;20060;-87
2023/12/31 12:00:29;;;;;;;;;;;;;;;5.40;100.00;101409.94;4986675;28;20062;-86
2023/12/31 12:02:58;;;;;;;2.42;1.20;;;;;;;5.37;100.00;101406.34;4987545;28;19922;-86
2023/12/31 12:05:30;;;;;;;5.75;1.10;;;;;;;5.34;100.00;101412.16;4990090;28;20092;-86
2023/12/31 12:08:03;;;;;;;11.75;1.20;;;;;;;5.28;100.00;101406.66;4979439;28;20050;-85
2023/12/31 12:10:34;;;;;;;1.58;1.00;;;;;;;5.28;100.00;101409.22;4982604;28;20052;-86
2023/12/31 12:13:04;;;;;;;1.23;0.65;;;;;;;5.19;100.00;101400.97;4989924;28;20078;-86
2023/12/31 12:15:39;;;;;;;0.68;0.52;;;;;;;5.16;100.00;101401.66;4990615;28;20133;-87
2023/12/31 12:18:19;;;;;;;0.90;0.40;;;;;;;5.17;100.00;101399.97;4992034;28;20069;-86
2023/12/31 12:20:59;;;;;;;0.80;0.63;;;;;;;5.17;100.00;101400.84;4992444;28;20058;-86